Time;durP1;ratioP1;P1;durP2;ratioP2;P2;SDS_P1;SDS_P2;PMS_P1;PMS_P2;Temp;Humidity;BMP_temperature;BMP_pressure;BME280_temperature;BME280_humidity;BME280_pressure;Samples;Min_cycle;Max_cycle;Signal;HPM_P1;HPM_P2
2021/09/24 00:04:40;;;;;;;1.13;0.50;;;;;;;14.36;83.51;99671.75;10423927;28;20050;-74
2021/09/24 00:09:42;;;;;;;4.55;0.65;;;;;;;14.17;83.66;99676.31;10424128;28;20110;-73
2021/09/24 00:14:43;;;;;;;2.00;0.82;;;;;;;14.23;81.35;99668.91;10422628;28;20513;-74
2021/09/24 00:19:45;;;;;;;1.85;0.60;;;;;;;14.11;80.13;99675.66;10405173;28;20056;-74
2021/09/24 00:24:48;;;;;;;3.95;0.70;;;;;;;14.22;78.10;99675.13;10424000;28;20053;-73
2021/09/24 00:29:49;;;;;;;2.58;0.50;;;;;;;14.03;79.12;99680.53;10406431;28;20435;-75
2021/09/24 00:34:51;;;;;;;3.33;0.63;;;;;;;14.02;78.76;99691.16;10422629;28;20356;-74
2021/09/24 00:39:53;;;;;;;1.95;0.90;;;;;;;13.93;80.04;99688.97;10423201;28;20124;-75
2021/09/24 00:44:54;;;;;;;3.30;0.98;;;;;;;13.96;78.94;99692.34;10404397;28;20045;-74
2021/09/24 00:49:57;;;;;;;3.92;0.77;;;;;;;13.80;79.51;99694.88;10422278;28;20549;-76
2021/09/24 00:54:59;;;;;;;4.93;1.00;;;;;;;13.88;79.05;99699.78;10405451;28;20065;-74
2021/09/24 01:00:01;;;;;;;2.20;0.68;;;;;;;13.98;78.04;99695.72;10422463;28;20045;-75
2021/09/24 01:05:04;;;;;;;2.25;0.70;;;;;;;13.91;78.39;99694.34;10403713;28;20414;-75
2021/09/24 01:10:07;;;;;;;3.90;1.00;;;;;;;13.90;77.44;99703.22;10421408;28;20049;-74
2021/09/24 01:15:12;;;;;;;5.50;1.30;;;;;;;13.84;77.50;99709.66;10422746;28;20052;-74
2021/09/24 01:20:16;;;;;;;4.78;0.90;;;;;;;14.01;76.53;99727.31;10433045;22;20045;-70
2021/09/24 01:25:20;;;;;;;3.35;1.05;;;;;;;13.98;76.24;99726.59;10416570;28;20063;-70
2021/09/24 01:30:22;;;;;;;3.95;1.02;;;;;;;13.83;77.66;99717.66;10398623;28;20053;-70
2021/09/24 01:35:24;;;;;;;4.80;1.73;;;;;;;13.88;76.46;99726.22;10398057;28;20057;-70
2021/09/24 01:40:26;;;;;;;5.43;1.67;;;;;;;13.82;76.88;99724.75;10415173;28;20056;-70
2021/09/24 01:45:27;;;;;;;3.70;1.30;;;;;;;13.76;77.17;99724.16;10415569;28;20080;-71
2021/09/24 01:50:29;;;;;;;4.88;1.40;;;;;;;13.79;77.53;99739.88;10414932;28;20125;-70
2021/09/24 01:55:31;;;;;;;4.18;1.50;;;;;;;13.91;76.28;99736.63;10415323;28;20046;-70
2021/09/24 02:00:33;;;;;;;5.43;1.83;;;;;;;13.81;76.68;99738.00;10415183;28;20055;-70
2021/09/24 02:05:34;;;;;;;5.05;1.88;;;;;;;13.81;76.80;99743.28;10397488;28;20052;-70
2021/09/24 02:10:36;;;;;;;5.82;1.95;;;;;;;13.80;76.84;99741.59;10414538;28;20052;-69
2021/09/24 02:15:38;;;;;;;4.95;1.70;;;;;;;13.60;77.66;99746.06;10414684;28;20136;-70
2021/09/24 02:20:40;;;;;;;4.70;1.65;;;;;;;13.67;76.87;99749.25;10414219;28;20450;-70
2021/09/24 02:25:41;;;;;;;5.30;1.73;;;;;;;13.36;77.16;99763.09;10414796;28;20125;-70
2021/09/24 02:30:43;;;;;;;9.23;1.92;;;;;;;13.47;75.84;99741.47;10414103;28;20060;-70
2021/09/24 02:35:45;;;;;;;8.77;1.75;;;;;;;13.50;75.06;99758.03;10414652;28;20049;-69
2021/09/24 02:40:46;;;;;;;8.48;1.90;;;;;;;13.45;75.38;99770.56;10413944;28;20112;-69
2021/09/24 02:45:48;;;;;;;4.00;1.60;;;;;;;13.57;75.54;99777.91;10414166;28;20037;-70
2021/09/24 02:50:49;;;;;;;6.30;1.83;;;;;;;13.40;76.69;99788.41;10413665;28;20053;-70
2021/09/24 02:55:51;;;;;;;5.75;1.60;;;;;;;13.64;76.36;99794.31;10413855;28;20052;-70
2021/09/24 03:00:57;;;;;;;4.80;1.95;;;;;;;13.52;77.55;99792.25;10414093;28;20060;-71
2021/09/24 03:05:58;;;;;;;5.03;2.10;;;;;;;13.60;75.87;99801.53;10421691;28;20566;-71
2021/09/24 03:11:00;;;;;;;9.15;2.97;;;;;;;13.59;75.10;99807.75;10421514;28;20053;-71
2021/09/24 03:16:02;;;;;;;5.28;1.90;;;;;;;13.59;73.84;99807.75;10421617;28;20069;-71
2021/09/24 03:21:04;;;;;;;8.13;2.95;;;;;;;13.47;74.56;99815.41;10421197;28;20042;-70
2021/09/24 03:26:06;;;;;;;6.10;2.92;;;;;;;13.43;74.95;99806.75;10421759;28;20183;-70
2021/09/24 03:31:07;;;;;;;7.93;3.17;;;;;;;13.23;76.33;99820.00;10420867;28;20076;-69
2021/09/24 03:36:09;;;;;;;7.32;3.30;;;;;;;13.34;75.90;99829.16;10421319;28;20060;-70
2021/09/24 03:41:11;;;;;;;7.60;3.47;;;;;;;13.38;76.06;99828.09;10420543;28;20053;-70
2021/09/24 03:46:12;;;;;;;4.82;2.35;;;;;;;13.43;74.97;99830.53;10420490;28;20057;-69
2021/09/24 03:51:14;;;;;;;7.72;2.80;;;;;;;13.48;74.78;99840.88;10420357;28;20077;-70
2021/09/24 03:56:15;;;;;;;9.73;3.25;;;;;;;13.35;74.71;99851.97;10419863;28;20056;-69
2021/09/24 04:01:17;;;;;;;4.30;2.17;;;;;;;13.21;75.72;99850.88;10419797;28;20053;-70
2021/09/24 04:06:19;;;;;;;7.32;2.33;;;;;;;13.55;73.45;99856.34;10419696;28;20042;-70
2021/09/24 04:11:21;;;;;;;8.50;2.70;;;;;;;13.40;73.19;99864.13;10420034;28;20133;-70
2021/09/24 04:16:23;;;;;;;8.07;3.22;;;;;;;13.16;74.51;99868.72;10420322;28;20045;-70
2021/09/24 04:21:24;;;;;;;8.07;2.58;;;;;;;13.08;75.10;99866.41;10402088;28;20037;-70
2021/09/24 04:26:26;;;;;;;8.70;3.05;;;;;;;12.99;74.61;99867.69;10420230;28;20107;-70
2021/09/24 04:31:28;;;;;;;13.90;3.17;;;;;;;12.82;75.60;99876.31;10419442;28;20125;-70
2021/09/24 04:36:30;;;;;;;8.57;2.63;;;;;;;12.77;75.45;99875.66;10401303;28;20145;-69
2021/09/24 04:41:31;;;;;;;8.95;2.53;;;;;;;12.67;75.72;99884.91;10401352;28;20045;-69
2021/09/24 04:46:33;;;;;;;8.30;2.85;;;;;;;12.51;76.38;99883.84;10420089;28;20363;-69
2021/09/24 04:51:34;;;;;;;11.07;2.58;;;;;;;12.35;76.41;99884.50;10400643;28;20049;-70
2021/09/24 04:56:36;;;;;;;13.63;3.50;;;;;;;12.45;75.52;99889.38;10419695;28;20045;-70
2021/09/24 05:01:38;;;;;;;9.20;2.55;;;;;;;12.45;75.13;99898.13;10400978;28;20046;-71
2021/09/24 05:06:39;;;;;;;11.00;3.03;;;;;;;12.53;74.84;99898.69;10418513;28;20076;-70
2021/09/24 05:11:41;;;;;;;12.90;3.40;;;;;;;12.53;74.23;99900.47;10418077;28;20048;-70
2021/09/24 05:16:42;;;;;;;13.38;3.83;;;;;;;12.49;74.35;99889.19;10418324;28;20049;-70
2021/09/24 05:21:44;;;;;;;13.95;3.78;;;;;;;12.44;74.01;99899.06;10417150;28;20100;-70
2021/09/24 05:26:45;;;;;;;14.38;3.60;;;;;;;12.59;73.53;99908.97;10416568;28;20053;-71
2021/09/24 05:31:48;;;;;;;14.45;4.20;;;;;;;12.61;74.02;99917.66;10417360;28;20041;-69
2021/09/24 05:36:50;;;;;;;11.68;3.30;;;;;;;12.56;74.67;99919.63;10399515;28;20080;-69
2021/09/24 05:41:51;;;;;;;8.75;3.22;;;;;;;12.47;75.55;99930.56;10399417;28;20095;-70
2021/09/24 05:46:53;;;;;;;8.13;2.88;;;;;;;12.92;74.23;99918.97;10416823;28;20107;-70
2021/09/24 05:51:55;;;;;;;10.98;3.55;;;;;;;12.74;75.41;99925.06;10416323;28;20364;-69
2021/09/24 05:56:57;;;;;;;12.20;4.10;;;;;;;12.90;75.05;99931.41;10418119;28;20045;-70
2021/09/24 06:01:59;;;;;;;16.90;3.63;;;;;;;12.83;76.01;99932.56;10416394;28;20402;-69
2021/09/24 06:07:00;;;;;;;11.07;3.17;;;;;;;13.19;74.40;99921.34;10415751;28;20049;-70
2021/09/24 06:12:02;;;;;;;6.32;2.35;;;;;;;13.09;75.15;99928.81;10397923;28;20097;-69
2021/09/24 06:17:04;;;;;;;7.38;2.70;;;;;;;12.90;76.24;99922.63;10382536;28;20140;-69
2021/09/24 06:22:07;;;;;;;10.70;2.55;;;;;;;13.35;72.72;99930.34;10416147;28;20395;-69
2021/09/24 06:27:14;;;;;;;6.85;2.47;;;;;;;13.33;73.46;99934.84;10415477;28;20053;-69
2021/09/24 06:32:16;;;;;;;5.45;1.65;;;;;;;13.44;72.69;99947.56;10415124;28;20046;-70
2021/09/24 06:37:18;;;;;;;9.23;2.00;;;;;;;13.29;74.45;99952.59;10415030;28;20045;-69
2021/09/24 06:42:20;;;;;;;10.63;2.10;;;;;;;13.52;72.59;99950.72;10414925;28;20120;-69
2021/09/24 06:47:22;;;;;;;6.90;1.80;;;;;;;13.56;73.28;99954.94;10415059;28;20053;-69
2021/09/24 06:52:23;;;;;;;7.00;1.50;;;;;;;13.53;71.87;99958.53;10414535;28;20046;-69
2021/09/24 06:57:26;;;;;;;7.78;1.52;;;;;;;13.49;72.45;99969.31;10414482;28;20056;-69
2021/09/24 07:02:27;;;;;;;5.40;1.80;;;;;;;13.59;72.30;99967.97;10414297;28;20051;-69
2021/09/24 07:07:30;;;;;;;6.70;1.65;;;;;;;13.80;71.05;99966.13;10396278;28;20105;-69
2021/09/24 07:12:31;;;;;;;4.63;1.30;;;;;;;13.95;69.71;99968.09;10414618;28;20064;-69
2021/09/24 07:17:33;;;;;;;9.20;2.25;;;;;;;13.82;70.37;99972.22;10414350;28;20552;-69
2021/09/24 07:22:35;;;;;;;6.65;1.67;;;;;;;13.91;70.70;99974.44;10386487;23;20049;-72
2021/09/24 07:27:37;;;;;;;9.65;1.50;;;;;;;14.26;68.92;99972.78;10374750;28;20399;-73
2021/09/24 07:32:41;;;;;;;6.25;1.77;;;;;;;14.21;70.35;99985.38;10373896;28;20042;-72
2021/09/24 07:37:43;;;;;;;8.23;2.10;;;;;;;14.39;70.31;99995.06;10372861;28;20054;-73
2021/09/24 07:42:44;;;;;;;9.57;1.88;;;;;;;14.67;67.74;99992.88;10373141;28;20042;-72
2021/09/24 07:47:46;;;;;;;5.22;1.50;;;;;;;14.42;69.67;99986.09;10375312;28;20054;-73
2021/09/24 07:52:47;;;;;;;8.00;2.03;;;;;;;14.48;69.82;100000.84;10380443;28;20049;-73
2021/09/24 07:57:55;;;;;;;8.07;2.63;;;;;;;14.47;70.25;100004.41;10380771;28;20046;-72
2021/09/24 08:02:58;;;;;;;5.47;3.00;;;;;;;14.65;69.66;100008.81;10380914;28;20069;-71
2021/09/24 08:07:59;;;;;;;8.00;2.35;;;;;;;14.87;69.31;100011.25;10380278;28;20074;-72
2021/09/24 08:13:01;;;;;;;3.70;1.80;;;;;;;15.06;69.40;100013.88;10380242;28;20046;-72
2021/09/24 08:18:03;;;;;;;4.13;1.58;;;;;;;15.22;67.59;99996.25;10379708;28;20133;-74
2021/09/24 08:23:04;;;;;;;6.18;1.92;;;;;;;15.12;69.43;100002.97;10379359;28;20038;-74
2021/09/24 08:28:07;;;;;;;4.50;1.60;;;;;;;15.45;68.06;100003.03;10349221;28;20104;-73
2021/09/24 08:33:09;;;;;;;2.78;1.10;;;;;;;15.36;65.75;100001.72;10337253;28;20038;-72
2021/09/24 08:38:11;;;;;;;3.38;0.95;;;;;;;15.46;65.46;100001.22;10338560;28;20170;-72
2021/09/24 08:43:13;;;;;;;2.58;1.05;;;;;;;15.64;64.67;99990.53;10338029;28;20050;-73
2021/09/24 08:48:16;;;;;;;2.67;1.20;;;;;;;15.87;63.40;99999.03;10336881;28;20104;-73
2021/09/24 08:53:19;;;;;;;2.38;1.02;;;;;;;15.94;64.00;100004.84;10336506;28;20262;-71
2021/09/24 08:58:21;;;;;;;3.60;1.40;;;;;;;16.13;62.52;100009.09;10337879;28;20511;-73
2021/09/24 09:03:23;;;;;;;2.55;1.10;;;;;;;16.14;61.83;100008.13;10337883;28;20050;-72
2021/09/24 09:08:27;;;;;;;3.58;1.10;;;;;;;16.29;62.05;100016.19;10337918;28;20050;-72
2021/09/24 09:13:34;;;;;;;3.65;1.25;;;;;;;16.25;62.14;100012.00;10337633;28;20073;-72
2021/09/24 09:18:39;;;;;;;3.47;1.03;;;;;;;16.32;63.15;100019.53;10337081;28;20046;-72
2021/09/24 09:23:48;;;;;;;5.53;1.88;;;;;;;16.20;62.50;100014.88;10335589;28;20325;-73
2021/09/24 09:28:53;;;;;;;3.88;1.02;;;;;;;15.87;63.08;100020.25;10337495;28;20042;-73
2021/09/24 09:33:58;;;;;;;3.38;0.80;;;;;;;16.21;61.74;100011.31;10336585;28;20480;-72
2021/09/24 09:39:08;;;;;;;1.17;0.57;;;;;;;16.27;60.02;100016.28;10336455;28;20097;-74
2021/09/24 09:44:09;;;;;;;2.05;0.68;;;;;;;16.52;60.06;100004.31;10336227;28;20459;-72
2021/09/24 09:49:16;;;;;;;2.25;0.80;;;;;;;17.04;58.73;100014.56;10336235;28;20047;-73
2021/09/24 09:54:31;;;;;;;2.53;0.90;;;;;;;17.31;58.79;100005.00;10335868;28;20116;-73
2021/09/24 09:59:32;;;;;;;1.77;0.60;;;;;;;17.24;59.06;100000.13;10335304;28;20078;-73
2021/09/24 10:04:46;;;;;;;1.70;0.73;;;;;;;16.56;60.03;100006.69;10335389;28;20038;-76
2021/09/24 10:10:03;;;;;;;2.92;0.77;;;;;;;16.54;61.00;100005.91;10335481;28;20485;-73
2021/09/24 10:15:07;;;;;;;2.70;0.90;;;;;;;16.83;60.95;100006.09;10333225;28;20050;-73
2021/09/24 10:20:11;;;;;;;1.48;0.65;;;;;;;17.03;60.42;100003.09;10334359;28;20046;-73
2021/09/24 10:25:21;;;;;;;1.65;0.70;;;;;;;17.70;57.29;99999.97;10334785;28;20049;-72
2021/09/24 10:30:28;;;;;;;1.95;0.70;;;;;;;18.14;56.66;99994.56;10335176;28;20096;-72
2021/09/24 10:35:53;;;;;;;1.55;0.52;;;;;;;18.91;54.69;99993.13;10335508;28;20056;-73
2021/09/24 10:41:05;;;;;;;1.70;0.68;;;;;;;18.62;54.93;99995.84;10335487;28;20415;-73
2021/09/24 10:46:37;;;;;;;1.05;0.57;;;;;;;18.17;55.57;99982.88;10335424;28;20046;-74
2021/09/24 10:52:05;;;;;;;1.08;0.57;;;;;;;18.15;55.39;99986.50;10336016;28;20096;-72
2021/09/24 10:57:10;;;;;;;1.23;0.32;;;;;;;18.10;54.92;99983.25;10334243;28;20092;-73
2021/09/24 11:02:36;;;;;;;1.88;0.75;;;;;;;17.65;56.82;99979.84;10335270;28;20419;-73
2021/09/24 11:07:39;;;;;;;2.10;0.50;;;;;;;17.42;56.22;99977.75;10335361;28;20071;-72
2021/09/24 11:13:08;;;;;;;1.98;0.50;;;;;;;17.43;57.90;99986.56;10334383;28;20046;-74
2021/09/24 11:18:10;;;;;;;2.17;0.50;;;;;;;17.23;58.28;99988.66;10334748;28;20066;-73
2021/09/24 11:23:49;;;;;;;0.70;0.40;;;;;;;17.29;58.11;99984.75;10336019;28;20389;-72
2021/09/24 11:29:22;;;;;;;1.55;0.50;;;;;;;17.18;59.32;99990.72;10283037;28;20118;-72
2021/09/24 11:34:33;;;;;;;1.70;0.50;;;;;;;17.21;60.09;99974.59;10219080;29;20205;-71
2021/09/24 11:39:37;;;;;;;0.65;0.40;;;;;;;17.33;58.82;99971.19;10218409;29;20064;-72
2021/09/24 11:44:50;;;;;;;1.85;0.60;;;;;;;17.46;59.87;99958.03;10217752;29;20166;-71
2021/09/24 11:49:54;;;;;;;3.10;0.70;;;;;;;17.39;60.20;99954.03;10201932;29;20524;-72
2021/09/24 11:55:09;;;;;;;1.17;0.50;;;;;;;17.61;59.18;99959.72;10217444;29;20119;-72
2021/09/24 12:00:11;;;;;;;1.65;0.70;;;;;;;17.71;60.30;99964.47;10226872;29;20051;-73
2021/09/24 12:05:13;;;;;;;2.47;0.93;;;;;;;17.64;59.66;99953.38;10257750;29;20136;-73
2021/09/24 12:10:15;;;;;;;1.75;1.05;;;;;;;17.60;60.87;99952.69;10299562;28;20480;-72
2021/09/24 12:15:17;;;;;;;2.05;0.80;;;;;;;17.79;60.68;99954.25;10341745;28;20038;-72
2021/09/24 12:20:25;;;;;;;1.45;1.00;;;;;;;17.70;60.51;99954.78;10341794;28;20420;-71
2021/09/24 12:25:26;;;;;;;2.05;0.60;;;;;;;17.62;61.19;99956.13;10341270;28;20038;-71
2021/09/24 12:30:37;;;;;;;1.23;0.50;;;;;;;17.77;58.79;99959.66;10340901;28;20054;-74
2021/09/24 12:35:40;;;;;;;2.35;0.70;;;;;;;17.90;58.96;99951.78;10340857;28;20038;-72
2021/09/24 12:40:41;;;;;;;2.50;0.50;;;;;;;17.61;59.81;99957.06;10340139;28;20117;-73
2021/09/24 12:45:43;;;;;;;1.15;0.50;;;;;;;17.45;59.78;99952.81;10341452;28;20521;-72
2021/09/24 12:50:46;;;;;;;1.58;0.60;;;;;;;17.28;61.34;99960.00;10339039;28;20053;-72
2021/09/24 12:55:50;;;;;;;1.80;0.70;;;;;;;17.22;60.27;99957.72;10339730;28;20046;-72
2021/09/24 13:00:56;;;;;;;1.55;0.68;;;;;;;17.51;58.69;99963.06;10337231;28;20051;-74
2021/09/24 13:05:59;;;;;;;1.73;0.55;;;;;;;17.45;59.31;99963.44;10339855;28;20121;-72
2021/09/24 13:11:04;;;;;;;1.30;0.50;;;;;;;17.70;58.24;99962.75;10337429;28;20042;-73
2021/09/24 13:16:06;;;;;;;1.77;0.80;;;;;;;17.53;59.01;99970.00;10338376;28;20046;-72
2021/09/24 13:21:08;;;;;;;1.52;0.70;;;;;;;17.44;59.13;99980.31;10384585;23;20045;-69
2021/09/24 13:26:12;;;;;;;2.17;0.68;;;;;;;17.32;59.22;99960.69;10400688;28;20402;-69
2021/09/24 13:31:15;;;;;;;2.70;0.77;;;;;;;17.39;59.60;99965.50;10419124;28;20399;-69
2021/09/24 13:36:17;;;;;;;1.30;0.47;;;;;;;17.50;58.88;99966.66;10416713;28;20091;-69
2021/09/24 13:41:18;;;;;;;0.85;0.45;;;;;;;17.51;59.01;99963.06;10417334;28;20482;-68
2021/09/24 13:46:20;;;;;;;1.08;0.38;;;;;;;17.52;58.88;99957.63;10415490;28;20046;-68
2021/09/24 13:51:22;;;;;;;1.23;0.50;;;;;;;17.63;59.52;99949.00;10416004;28;20045;-68
2021/09/24 13:56:25;;;;;;;1.83;0.63;;;;;;;17.81;57.30;99952.34;10416188;28;20041;-68
2021/09/24 14:01:26;;;;;;;1.85;0.52;;;;;;;17.56;58.94;99953.84;10415877;28;20121;-69
2021/09/24 14:06:28;;;;;;;1.67;0.50;;;;;;;17.59;58.60;99955.47;10397957;28;20045;-68
2021/09/24 14:11:30;;;;;;;1.38;0.63;;;;;;;17.74;58.03;99953.69;10415874;28;20053;-69
2021/09/24 14:16:32;;;;;;;1.38;0.75;;;;;;;17.77;57.87;99953.50;10397200;28;20046;-69
2021/09/24 14:21:34;;;;;;;0.65;0.40;;;;;;;17.76;58.20;99957.13;10397725;28;20049;-67
2021/09/24 14:26:36;;;;;;;1.48;0.52;;;;;;;17.73;58.45;99960.78;10414965;28;20129;-68
2021/09/24 14:31:37;;;;;;;1.25;0.70;;;;;;;17.50;60.47;99961.34;10414518;28;20041;-68
2021/09/24 14:36:39;;;;;;;1.75;0.75;;;;;;;17.70;58.86;99960.09;10414570;28;20434;-68
2021/09/24 14:41:41;;;;;;;1.35;0.80;;;;;;;17.45;60.92;99966.94;10414831;28;20471;-68
2021/09/24 14:46:42;;;;;;;3.20;1.38;;;;;;;17.52;59.76;99965.59;10414252;28;20125;-68
2021/09/24 14:51:44;;;;;;;1.08;1.00;;;;;;;17.41;60.54;99960.09;10414390;28;20057;-68
2021/09/24 14:56:45;;;;;;;1.25;0.95;;;;;;;17.47;60.60;99957.06;10415279;28;20069;-68
2021/09/24 15:01:47;;;;;;;1.40;0.90;;;;;;;17.60;60.34;99951.84;10422553;28;20059;-68
2021/09/24 15:06:49;;;;;;;2.38;1.05;;;;;;;17.53;61.46;99947.84;10417754;28;20041;-67
2021/09/24 15:11:50;;;;;;;2.08;0.95;;;;;;;17.56;61.31;99945.00;10402754;28;20045;-68
2021/09/24 15:16:52;;;;;;;1.77;1.20;;;;;;;17.48;62.42;99955.25;10398605;28;20042;-69
2021/09/24 15:21:55;;;;;;;5.13;1.23;;;;;;;17.50;62.11;99950.72;10421799;28;20470;-69
2021/09/24 15:26:57;;;;;;;3.17;1.40;;;;;;;17.44;63.16;99941.31;10374558;28;20111;-69
2021/09/24 15:32:01;;;;;;;3.15;1.40;;;;;;;17.29;63.30;99942.25;10362875;28;20050;-68
2021/09/24 15:37:03;;;;;;;3.47;2.10;;;;;;;17.09;64.20;99943.47;10392600;28;20438;-69
2021/09/24 15:42:05;;;;;;;3.50;1.30;;;;;;;17.15;64.29;99941.28;10420960;28;20045;-68
2021/09/24 15:47:07;;;;;;;2.67;1.73;;;;;;;17.20;64.54;99948.97;10420853;28;20041;-68
2021/09/24 15:52:09;;;;;;;3.05;1.95;;;;;;;17.14;64.69;99950.22;10422314;28;20103;-69
2021/09/24 15:57:11;;;;;;;3.17;2.30;;;;;;;17.01;65.86;99954.53;10420966;28;20450;-68
2021/09/24 16:02:12;;;;;;;3.97;1.83;;;;;;;17.14;65.66;99955.53;10420202;28;20107;-69
2021/09/24 16:07:14;;;;;;;4.10;2.03;;;;;;;17.24;64.85;99962.94;10420184;28;20121;-68
2021/09/24 16:12:16;;;;;;;3.65;2.15;;;;;;;16.99;66.53;99964.38;10419757;28;20099;-69
2021/09/24 16:17:19;;;;;;;4.55;3.03;;;;;;;17.05;67.14;99968.50;10420118;28;20076;-69
2021/09/24 16:22:21;;;;;;;5.45;3.42;;;;;;;16.85;68.46;99974.97;10421135;28;20050;-68
2021/09/24 16:27:23;;;;;;;5.47;2.90;;;;;;;16.79;69.17;99983.31;10419450;28;20049;-68
2021/09/24 16:32:25;;;;;;;7.82;4.38;;;;;;;16.54;70.52;99983.81;10418749;28;20072;-68
2021/09/24 16:37:42;;;;;;;6.30;2.55;;;;;;;16.55;71.08;99973.13;10418227;28;20112;-70
2021/09/24 16:42:44;;;;;;;4.10;2.65;;;;;;;16.63;70.28;99973.53;10418827;28;20050;-70
2021/09/24 16:47:45;;;;;;;3.75;2.22;;;;;;;16.62;70.33;99971.81;10401770;28;20045;-67
2021/09/24 16:52:47;;;;;;;4.03;2.65;;;;;;;16.60;70.25;99973.72;10418934;28;20048;-67
2021/09/24 16:57:49;;;;;;;3.70;2.05;;;;;;;16.39;71.17;99975.81;10417762;28;20080;-68
2021/09/24 17:02:50;;;;;;;1.92;1.70;;;;;;;16.40;70.80;99985.47;10417781;28;20038;-67
2021/09/24 17:07:53;;;;;;;3.30;1.98;;;;;;;16.40;71.29;99982.81;10417595;28;20045;-67
2021/09/24 17:12:54;;;;;;;3.65;2.38;;;;;;;16.28;72.79;99993.25;10417883;28;20041;-68
2021/09/24 17:17:56;;;;;;;2.97;2.10;;;;;;;16.27;72.61;100000.34;10398887;28;20033;-67
2021/09/24 17:23:01;;;;;;;3.30;2.33;;;;;;;16.12;72.20;99993.28;10415897;28;20046;-67
2021/09/24 17:28:03;;;;;;;2.90;2.60;;;;;;;16.09;73.34;100004.88;10417679;28;20494;-67
2021/09/24 17:33:05;;;;;;;3.40;2.28;;;;;;;16.18;73.71;100007.97;10416665;28;20037;-67
2021/09/24 17:38:07;;;;;;;3.53;2.53;;;;;;;16.23;73.58;100014.72;10416145;28;20045;-70
2021/09/24 17:43:08;;;;;;;3.53;2.30;;;;;;;16.20;73.60;100012.22;10398548;28;20057;-68
2021/09/24 17:48:10;;;;;;;3.53;2.60;;;;;;;16.12;74.17;100018.00;10397974;28;20046;-68
2021/09/24 17:53:12;;;;;;;3.28;2.10;;;;;;;16.04;74.98;100022.00;10415360;28;20099;-68
2021/09/24 17:58:13;;;;;;;3.60;2.20;;;;;;;16.00;75.50;100025.75;10415416;28;20422;-68
2021/09/24 18:03:15;;;;;;;5.82;3.30;;;;;;;16.17;75.41;100024.84;10415125;28;20511;-68
2021/09/24 18:08:17;;;;;;;4.60;3.40;;;;;;;16.26;75.76;100022.53;10414772;28;20045;-68
2021/09/24 18:13:18;;;;;;;4.50;4.10;;;;;;;16.47;75.69;100035.50;10414430;28;20049;-68
2021/09/24 18:18:20;;;;;;;6.45;4.13;;;;;;;16.50;75.86;100025.59;10415863;28;20042;-67
2021/09/24 18:23:24;;;;;;;4.70;4.30;;;;;;;16.51;75.86;100029.97;10414332;28;20055;-67
2021/09/24 18:28:26;;;;;;;5.10;4.40;;;;;;;16.47;76.64;100031.09;10415383;28;20411;-67
2021/09/24 18:33:28;;;;;;;5.47;5.07;;;;;;;16.42;77.53;100027.81;10414501;28;20116;-67
2021/09/24 18:38:29;;;;;;;5.65;5.25;;;;;;;16.32;79.13;100013.38;10414301;28;20107;-67
2021/09/24 18:43:31;;;;;;;6.07;5.68;;;;;;;16.37;78.89;100021.91;10414555;28;20541;-67
2021/09/24 18:48:32;;;;;;;6.53;6.03;;;;;;;16.37;79.58;100028.06;10414350;28;20119;-69
2021/09/24 18:53:34;;;;;;;5.90;5.32;;;;;;;16.36;79.53;100014.91;10415213;28;20049;-69
2021/09/24 18:58:36;;;;;;;6.85;6.30;;;;;;;16.51;78.77;100011.41;10414902;28;20107;-67
2021/09/24 19:03:37;;;;;;;6.00;5.50;;;;;;;16.47;79.02;100007.22;10414034;28;20065;-67
2021/09/24 19:08:39;;;;;;;5.10;4.70;;;;;;;16.67;78.08;100008.72;10413514;28;20099;-67
2021/09/24 19:13:40;;;;;;;5.85;5.38;;;;;;;16.63;78.79;100008.03;10413266;28;20517;-67
2021/09/24 19:18:42;;;;;;;5.82;5.35;;;;;;;16.63;78.65;100005.38;10413653;28;20080;-67
2021/09/24 19:23:45;;;;;;;7.35;6.82;;;;;;;16.70;78.20;100000.59;10431069;22;20045;-76
2021/09/24 19:28:49;;;;;;;7.10;6.60;;;;;;;16.69;78.40;100003.31;10415181;28;20410;-74
2021/09/24 19:33:50;;;;;;;7.55;6.95;;;;;;;16.77;77.77;100014.38;10397418;28;20045;-74
2021/09/24 19:38:52;;;;;;;6.40;5.93;;;;;;;16.74;78.09;100014.56;10396631;28;20457;-75
2021/09/24 19:43:54;;;;;;;7.38;6.88;;;;;;;16.64;78.95;100019.50;10416048;28;20064;-74
2021/09/24 19:48:56;;;;;;;11.48;6.93;;;;;;;16.76;78.35;100018.84;10404262;28;20049;-74
2021/09/24 19:53:58;;;;;;;7.72;7.03;;;;;;;16.90;77.54;100024.19;10387737;28;20042;-74
2021/09/24 19:58:59;;;;;;;7.50;6.90;;;;;;;17.03;76.66;100020.84;10404313;28;20045;-74
2021/09/24 20:04:01;;;;;;;8.20;7.55;;;;;;;17.15;76.17;100020.97;10422021;28;20133;-74
2021/09/24 20:09:05;;;;;;;7.53;7.03;;;;;;;17.19;76.11;100021.66;10421501;28;20087;-74
2021/09/24 20:14:06;;;;;;;8.80;8.00;;;;;;;17.29;75.43;100024.63;10403201;28;20076;-74
2021/09/24 20:19:08;;;;;;;9.40;8.70;;;;;;;17.18;75.86;100016.41;10421101;28;20067;-74
2021/09/24 20:24:10;;;;;;;8.52;7.80;;;;;;;17.17;76.04;100025.31;10420541;28;20042;-73
2021/09/24 20:29:11;;;;;;;9.70;8.80;;;;;;;17.22;76.13;100015.28;10420827;28;20128;-73
2021/09/24 20:34:13;;;;;;;9.20;8.55;;;;;;;17.37;75.46;100025.00;10403057;28;20053;-73
2021/09/24 20:39:15;;;;;;;9.48;8.68;;;;;;;17.29;75.26;100028.13;10420395;28;20053;-74
2021/09/24 20:44:16;;;;;;;9.93;9.18;;;;;;;17.28;75.69;100018.44;10401962;28;20050;-74
2021/09/24 20:49:19;;;;;;;10.18;9.38;;;;;;;17.26;75.63;100020.31;10419572;28;20045;-75
2021/09/24 20:54:21;;;;;;;10.20;9.40;;;;;;;17.26;75.83;100016.81;10401142;28;20057;-75
2021/09/24 20:59:22;;;;;;;10.82;10.02;;;;;;;17.37;75.23;100017.03;10401998;28;20053;-73
2021/09/24 21:04:24;;;;;;;10.38;9.57;;;;;;;17.28;75.56;100013.13;10401502;28;20503;-74
2021/09/24 21:09:26;;;;;;;10.90;10.07;;;;;;;17.43;74.69;100010.50;10418781;28;20072;-74
2021/09/24 21:14:27;;;;;;;12.77;10.70;;;;;;;17.36;75.02;100015.34;10401262;28;20045;-73
2021/09/24 21:19:29;;;;;;;11.27;10.38;;;;;;;17.36;74.95;100018.00;10401483;28;20041;-74
2021/09/24 21:24:31;;;;;;;11.32;10.32;;;;;;;17.38;74.79;100013.44;10400515;28;20054;-74
2021/09/24 21:29:32;;;;;;;11.02;10.23;;;;;;;17.39;74.31;100013.31;10418374;28;20047;-74
2021/09/24 21:34:34;;;;;;;10.32;9.52;;;;;;;17.44;73.95;100010.38;10400304;28;20045;-74
2021/09/24 21:39:36;;;;;;;9.02;8.43;;;;;;;17.29;74.76;100006.88;10417694;28;20053;-73
2021/09/24 21:44:38;;;;;;;8.82;8.13;;;;;;;17.55;73.25;100002.63;10417537;28;20490;-74
2021/09/24 21:49:39;;;;;;;8.05;7.30;;;;;;;17.38;74.04;100001.00;10418754;28;20125;-74
2021/09/24 21:54:41;;;;;;;8.57;7.80;;;;;;;17.46;73.53;100005.84;10417099;28;20521;-73
2021/09/24 21:59:43;;;;;;;7.80;7.07;;;;;;;17.48;73.85;100000.44;10416814;28;20045;-74
2021/09/24 22:04:45;;;;;;;8.32;7.63;;;;;;;17.43;73.87;100006.03;10417190;28;20055;-73
2021/09/24 22:09:48;;;;;;;8.48;7.82;;;;;;;17.57;73.07;99997.22;10418687;28;20080;-71
2021/09/24 22:14:49;;;;;;;8.48;7.78;;;;;;;17.49;73.39;99995.03;10411850;28;20041;-73
2021/09/24 22:19:51;;;;;;;9.07;8.35;;;;;;;17.37;74.16;99996.63;10394003;28;20057;-73
2021/09/24 22:24:53;;;;;;;9.13;8.20;;;;;;;17.32;74.15;100005.84;10411648;28;20087;-74
2021/09/24 22:29:55;;;;;;;8.95;8.25;;;;;;;17.40;74.11;100000.91;10397615;28;20469;-72
2021/09/24 22:34:56;;;;;;;9.00;8.20;;;;;;;17.30;74.40;100005.06;10416414;28;20045;-74
2021/09/24 22:39:58;;;;;;;8.88;8.07;;;;;;;17.42;74.39;100000.81;10416351;28;20045;-74
2021/09/24 22:45:00;;;;;;;8.15;7.57;;;;;;;17.23;75.03;99993.09;10398668;28;20047;-74
2021/09/24 22:50:05;;;;;;;7.75;7.10;;;;;;;17.15;75.58;99996.22;10398108;28;20119;-73
2021/09/24 22:55:09;;;;;;;7.10;6.50;;;;;;;17.28;74.75;99993.69;10415901;28;20045;-75
2021/09/24 23:00:14;;;;;;;6.85;6.25;;;;;;;17.33;74.63;99994.25;10399222;28;20471;-73
2021/09/24 23:05:16;;;;;;;7.85;7.05;;;;;;;17.19;75.17;99995.09;10416804;28;20049;-74
2021/09/24 23:10:20;;;;;;;7.60;6.18;;;;;;;17.16;74.79;99992.59;10415749;28;20037;-74
2021/09/24 23:15:22;;;;;;;6.18;5.68;;;;;;;17.31;73.87;99989.06;10397720;28;20495;-73
2021/09/24 23:20:24;;;;;;;6.03;5.63;;;;;;;17.19;74.34;99989.78;10419311;28;20049;-74
2021/09/24 23:25:25;;;;;;;5.82;5.32;;;;;;;17.34;73.59;99988.84;10424115;28;20045;-73